Spillimacheen, British Columbia

11:12 AM MDT on July 28, 2017 (GMT -0600)
Golden | | Change Station

Elev 2575 ft 51.30 °N, 116.98 °W | Updated 12 minutes ago

Clear
Clear
68 °F
Feels Like 68 °F
N
7
Wind Variable Wind from NW

Today
High -- | Low -- °F
--% Chance of Precip.
Yesterday
High -- | Low -- °F
Precip. -- in
Pressure 30.01 in
Visibility 20.0 miles
Clouds Few 6000 ft
Scattered Clouds 13000 ft
Mostly Cloudy 23000 ft
Mostly Cloudy 26000 ft
Dew Point 48 °F
Humidity 49%
Rainfall 0.00 in
Snow Depth Not available.
6:06 AM 9:36 PM
Waxing Crescent, 31% visible
METAR CYGE 281700Z 31006KT 20SM FEW060 SCT130 BKN230 BKN260 20/09 A3003 RMK CU1AC2CI2CI2 SLP161 DENSITY ALT 3700FT
Pressure 30.01 in
Visibility 20.0 miles
Clouds Few 6000 ft
Scattered Clouds 13000 ft
Mostly Cloudy 23000 ft
Mostly Cloudy 26000 ft
Dew Point 48 °F
Humidity 49%
Rainfall 0.00 in
Snow Depth Not available.
6:06 AM 9:36 PM
Waxing Crescent, 31% visible
METAR CYGE 281700Z 31006KT 20SM FEW060 SCT130 BKN230 BKN260 20/09 A3003 RMK CU1AC2CI2CI2 SLP161 DENSITY ALT 3700FT

Get Severe Weather Alerts

Thanks for signing up!

Be on the lookout for a verification email in your inbox.

You'll start receiving the daily forecast at 6 AM.

×

10-Day Weather Forecast

Almanac

Astronomy

Jul. 28, 2017 Rise Set
Actual Time
Civil Twilight
Nautical Twilight
Astronomical Twilight
Moon
Length of Visible Light
Length of Day
Tomorrow will be .
, % of the Moon is Illuminated

Today's Extremes

Country Highs Country Lows

Community

WunderPhotos

Category 6

Welcome to Category 6. This is the collective home for Weather Underground's featured writeups by Dr. Jeff Masters (right), Bob Henson (left), Chris Burt, and other regular contributors.

Nearby

Air Quality

  Air Quality AQ Index Pollutant
Not available.

Snow Depth

Station Depth Elevation

Earthquake Activity

City Distance Mag. Time & Date
Minimum magnitude displayed is 2.5.

Coastal Water Temperatures

Place Temperature

Stations

Nearby Weather Stations

Station Location Temp. Windchill Dew Point Humidity Wind Precip. Elev Updated Type
                   

Watches & Warnings

There are currently no watches in effect.